sensor_id;sensor_type;location;lat;lon;timestamp;pressure;altitude;pressure_sealevel;temperature;humidity
11349;BME280;5729;43.570;27.826;2023-01-04T00:00:09;100031.69;;;6.79;100.00
11349;BME280;5729;43.570;27.826;2023-01-04T00:02:34;100037.06;;;6.79;100.00
11349;BME280;5729;43.570;27.826;2023-01-04T00:05:00;100044.44;;;6.74;100.00
11349;BME280;5729;43.570;27.826;2023-01-04T00:07:28;100041.47;;;6.75;100.00
11349;BME280;5729;43.570;27.826;2023-01-04T00:09:54;100036.03;;;6.67;100.00
11349;BME280;5729;43.570;27.826;2023-01-04T00:12:19;100040.69;;;6.75;100.00
11349;BME280;5729;43.570;27.826;2023-01-04T00:14:45;100043.50;;;6.78;100.00
11349;BME280;5729;43.570;27.826;2023-01-04T00:17:11;100035.97;;;6.80;100.00
11349;BME280;5729;43.570;27.826;2023-01-04T00:19:36;100031.28;;;6.86;100.00
11349;BME280;5729;43.570;27.826;2023-01-04T00:22:02;100039.16;;;6.91;100.00
11349;BME280;5729;43.570;27.826;2023-01-04T00:24:27;100045.19;;;6.97;100.00
11349;BME280;5729;43.570;27.826;2023-01-04T00:26:53;100057.03;;;6.96;100.00
11349;BME280;5729;43.570;27.826;2023-01-04T00:29:18;100067.25;;;6.93;100.00
11349;BME280;5729;43.570;27.826;2023-01-04T00:31:43;100057.09;;;6.82;100.00
11349;BME280;5729;43.570;27.826;2023-01-04T00:34:12;100054.88;;;6.75;100.00
11349;BME280;5729;43.570;27.826;2023-01-04T00:36:38;100063.06;;;6.79;100.00
11349;BME280;5729;43.570;27.826;2023-01-04T00:39:03;100066.69;;;6.74;100.00
11349;BME280;5729;43.570;27.826;2023-01-04T00:41:33;100074.72;;;6.74;100.00
11349;BME280;5729;43.570;27.826;2023-01-04T00:43:59;100057.53;;;6.75;100.00
11349;BME280;5729;43.570;27.826;2023-01-04T00:46:27;100060.22;;;6.75;100.00
11349;BME280;5729;43.570;27.826;2023-01-04T00:48:53;100070.00;;;6.80;100.00
11349;BME280;5729;43.570;27.826;2023-01-04T00:51:18;100057.88;;;6.82;100.00
11349;BME280;5729;43.570;27.826;2023-01-04T00:53:44;100066.22;;;6.81;100.00
11349;BME280;5729;43.570;27.826;2023-01-04T00:56:09;100064.03;;;6.83;100.00
11349;BME280;5729;43.570;27.826;2023-01-04T00:58:35;100067.03;;;6.81;100.00
11349;BME280;5729;43.570;27.826;2023-01-04T01:01:05;100064.00;;;6.74;100.00
11349;BME280;5729;43.570;27.826;2023-01-04T01:03:31;100062.59;;;6.77;100.00
11349;BME280;5729;43.570;27.826;2023-01-04T01:06:00;100062.25;;;6.78;100.00
11349;BME280;5729;43.570;27.826;2023-01-04T01:08:26;100054.72;;;6.80;100.00
11349;BME280;5729;43.570;27.826;2023-01-04T01:10:53;100073.97;;;6.82;100.00
11349;BME280;5729;43.570;27.826;2023-01-04T01:13:19;100065.09;;;6.73;100.00
11349;BME280;5729;43.570;27.826;2023-01-04T01:15:45;100069.97;;;6.71;100.00
11349;BME280;5729;43.570;27.826;2023-01-04T01:18:10;100073.53;;;6.67;100.00
11349;BME280;5729;43.570;27.826;2023-01-04T01:20:43;100067.53;;;6.61;100.00
11349;BME280;5729;43.570;27.826;2023-01-04T01:23:14;100073.53;;;6.67;100.00
11349;BME280;5729;43.570;27.826;2023-01-04T01:25:40;100059.34;;;6.66;100.00
11349;BME280;5729;43.570;27.826;2023-01-04T01:28:07;100065.34;;;6.63;100.00
11349;BME280;5729;43.570;27.826;2023-01-04T01:30:33;100054.81;;;6.44;100.00
11349;BME280;5729;43.570;27.826;2023-01-04T01:32:58;100058.41;;;6.40;100.00
11349;BME280;5729;43.570;27.826;2023-01-04T01:35:24;100042.22;;;6.45;100.00
11349;BME280;5729;43.570;27.826;2023-01-04T01:37:49;100053.66;;;6.37;100.00
11349;BME280;5729;43.570;27.826;2023-01-04T01:40:15;100052.03;;;6.27;100.00
11349;BME280;5729;43.570;27.826;2023-01-04T01:42:40;100047.88;;;6.21;100.00
11349;BME280;5729;43.570;27.826;2023-01-04T01:45:27;100059.69;;;6.42;100.00
11349;BME280;5729;43.570;27.826;2023-01-04T01:47:58;100060.34;;;6.26;100.00
11349;BME280;5729;43.570;27.826;2023-01-04T01:50:33;100067.59;;;6.47;100.00
11349;BME280;5729;43.570;27.826;2023-01-04T01:53:02;100060.09;;;6.58;100.00
11349;BME280;5729;43.570;27.826;2023-01-04T01:55:30;100061.72;;;6.68;100.00
11349;BME280;5729;43.570;27.826;2023-01-04T01:57:58;100074.41;;;6.76;100.00
11349;BME280;5729;43.570;27.826;2023-01-04T02:00:25;100078.69;;;6.77;100.00
11349;BME280;5729;43.570;27.826;2023-01-04T02:02:59;100068.78;;;6.86;100.00
11349;BME280;5729;43.570;27.826;2023-01-04T02:05:29;100070.38;;;6.87;100.00
11349;BME280;5729;43.570;27.826;2023-01-04T02:07:55;100088.81;;;6.88;100.00
11349;BME280;5729;43.570;27.826;2023-01-04T02:10:22;100071.63;;;6.89;100.00
11349;BME280;5729;43.570;27.826;2023-01-04T02:12:49;100066.59;;;6.88;100.00
11349;BME280;5729;43.570;27.826;2023-01-04T02:15:15;100073.41;;;6.94;100.00
11349;BME280;5729;43.570;27.826;2023-01-04T02:28:09;100079.88;;;6.71;100.00
11349;BME280;5729;43.570;27.826;2023-01-04T02:33:27;100081.19;;;6.51;100.00
11349;BME280;5729;43.570;27.826;2023-01-04T02:36:16;100074.34;;;6.45;100.00
11349;BME280;5729;43.570;27.826;2023-01-04T02:44:25;100068.56;;;6.29;100.00
11349;BME280;5729;43.570;27.826;2023-01-04T02:47:34;100077.41;;;6.30;100.00
11349;BME280;5729;43.570;27.826;2023-01-04T02:53:00;100069.28;;;6.43;100.00
11349;BME280;5729;43.570;27.826;2023-01-04T02:55:35;100058.47;;;6.48;100.00
11349;BME280;5729;43.570;27.826;2023-01-04T02:58:22;100069.38;;;6.52;100.00
11349;BME280;5729;43.570;27.826;2023-01-04T03:00:58;100065.84;;;6.43;100.00
11349;BME280;5729;43.570;27.826;2023-01-04T03:07:16;100076.00;;;6.54;100.00
11349;BME280;5729;43.570;27.826;2023-01-04T03:09:45;100076.19;;;6.58;100.00
11349;BME280;5729;43.570;27.826;2023-01-04T03:12:19;100069.47;;;6.47;100.00
11349;BME280;5729;43.570;27.826;2023-01-04T03:17:42;100080.25;;;6.55;100.00
11349;BME280;5729;43.570;27.826;2023-01-04T03:20:10;100079.78;;;6.53;100.00
11349;BME280;5729;43.570;27.826;2023-01-04T03:22:47;100090.78;;;6.52;100.00
11349;BME280;5729;43.570;27.826;2023-01-04T03:25:38;100097.09;;;6.56;100.00
11349;BME280;5729;43.570;27.826;2023-01-04T03:28:26;100095.38;;;6.51;100.00
11349;BME280;5729;43.570;27.826;2023-01-04T03:31:32;100092.19;;;6.49;100.00
11349;BME280;5729;43.570;27.826;2023-01-04T03:34:17;100098.41;;;6.59;100.00
11349;BME280;5729;43.570;27.826;2023-01-04T03:45:30;100103.25;;;6.34;100.00
11349;BME280;5729;43.570;27.826;2023-01-04T03:48:22;100108.50;;;6.39;100.00
11349;BME280;5729;43.570;27.826;2023-01-04T03:51:12;100107.81;;;6.56;100.00
11349;BME280;5729;43.570;27.826;2023-01-04T03:53:49;100111.69;;;6.64;100.00
11349;BME280;5729;43.570;27.826;2023-01-04T03:56:17;100124.94;;;6.69;100.00
11349;BME280;5729;43.570;27.826;2023-01-04T03:58:44;100116.78;;;6.74;100.00
11349;BME280;5729;43.570;27.826;2023-01-04T04:01:09;100119.53;;;6.82;100.00
11349;BME280;5729;43.570;27.826;2023-01-04T04:03:36;100122.72;;;6.93;100.00
11349;BME280;5729;43.570;27.826;2023-01-04T04:06:20;100129.69;;;6.94;100.00
11349;BME280;5729;43.570;27.826;2023-01-04T04:09:04;100126.50;;;6.92;100.00
11349;BME280;5729;43.570;27.826;2023-01-04T04:11:29;100111.41;;;6.96;100.00
11349;BME280;5729;43.570;27.826;2023-01-04T04:13:55;100130.91;;;7.10;100.00
11349;BME280;5729;43.570;27.826;2023-01-04T04:16:20;100120.81;;;7.16;100.00
11349;BME280;5729;43.570;27.826;2023-01-04T04:18:46;100118.81;;;7.21;100.00
11349;BME280;5729;43.570;27.826;2023-01-04T04:21:12;100127.78;;;7.25;100.00
11349;BME280;5729;43.570;27.826;2023-01-04T04:23:38;100121.66;;;7.25;100.00
11349;BME280;5729;43.570;27.826;2023-01-04T04:26:03;100125.31;;;7.29;100.00
11349;BME280;5729;43.570;27.826;2023-01-04T04:28:29;100127.84;;;7.34;100.00
11349;BME280;5729;43.570;27.826;2023-01-04T04:30:54;100129.72;;;7.34;100.00
11349;BME280;5729;43.570;27.826;2023-01-04T04:33:20;100136.25;;;7.41;100.00
11349;BME280;5729;43.570;27.826;2023-01-04T04:35:49;100133.56;;;7.41;100.00
11349;BME280;5729;43.570;27.826;2023-01-04T04:38:15;100129.31;;;7.49;100.00
11349;BME280;5729;43.570;27.826;2023-01-04T04:40:41;100127.47;;;7.58;100.00
11349;BME280;5729;43.570;27.826;2023-01-04T04:43:24;100126.66;;;7.57;100.00
11349;BME280;5729;43.570;27.826;2023-01-04T04:45:50;100123.19;;;7.57;100.00
11349;BME280;5729;43.570;27.826;2023-01-04T04:48:15;100132.53;;;7.68;100.00
11349;BME280;5729;43.570;27.826;2023-01-04T04:50:41;100125.63;;;7.76;100.00
11349;BME280;5729;43.570;27.826;2023-01-04T04:53:06;100142.38;;;7.81;100.00
11349;BME280;5729;43.570;27.826;2023-01-04T04:55:31;100143.00;;;7.78;100.00
11349;BME280;5729;43.570;27.826;2023-01-04T04:57:57;100141.56;;;7.81;100.00
11349;BME280;5729;43.570;27.826;2023-01-04T05:00:22;100142.72;;;7.88;100.00
11349;BME280;5729;43.570;27.826;2023-01-04T05:02:48;100146.81;;;7.94;100.00
11349;BME280;5729;43.570;27.826;2023-01-04T05:05:13;100150.97;;;8.00;100.00
11349;BME280;5729;43.570;27.826;2023-01-04T05:07:39;100145.75;;;8.04;100.00
11349;BME280;5729;43.570;27.826;2023-01-04T05:10:05;100136.44;;;8.10;100.00
11349;BME280;5729;43.570;27.826;2023-01-04T05:12:30;100147.03;;;8.15;100.00
11349;BME280;5729;43.570;27.826;2023-01-04T05:15:15;100143.88;;;8.22;100.00
11349;BME280;5729;43.570;27.826;2023-01-04T05:17:40;100145.31;;;8.28;100.00
11349;BME280;5729;43.570;27.826;2023-01-04T05:20:06;100154.84;;;8.34;100.00
11349;BME280;5729;43.570;27.826;2023-01-04T05:22:32;100146.13;;;8.37;100.00
11349;BME280;5729;43.570;27.826;2023-01-04T05:24:57;100140.75;;;8.37;100.00
11349;BME280;5729;43.570;27.826;2023-01-04T05:27:23;100139.19;;;8.45;100.00
11349;BME280;5729;43.570;27.826;2023-01-04T05:29:48;100130.81;;;8.46;100.00
11349;BME280;5729;43.570;27.826;2023-01-04T05:32:32;100127.00;;;8.47;100.00
11349;BME280;5729;43.570;27.826;2023-01-04T05:34:57;100139.50;;;8.52;100.00
11349;BME280;5729;43.570;27.826;2023-01-04T05:37:23;100146.63;;;8.56;100.00
11349;BME280;5729;43.570;27.826;2023-01-04T05:39:50;100144.38;;;8.58;100.00
11349;BME280;5729;43.570;27.826;2023-01-04T05:42:15;100138.22;;;8.58;100.00
11349;BME280;5729;43.570;27.826;2023-01-04T05:44:50;100143.94;;;8.56;100.00
11349;BME280;5729;43.570;27.826;2023-01-04T05:47:16;100148.97;;;8.58;100.00
11349;BME280;5729;43.570;27.826;2023-01-04T05:49:41;100139.81;;;8.50;100.00
11349;BME280;5729;43.570;27.826;2023-01-04T05:52:07;100156.09;;;8.62;100.00
11349;BME280;5729;43.570;27.826;2023-01-04T05:54:32;100154.03;;;8.59;100.00
11349;BME280;5729;43.570;27.826;2023-01-04T05:56:58;100147.72;;;8.64;100.00
11349;BME280;5729;43.570;27.826;2023-01-04T05:59:23;100147.06;;;8.58;100.00
11349;BME280;5729;43.570;27.826;2023-01-04T06:01:49;100157.69;;;8.63;100.00
11349;BME280;5729;43.570;27.826;2023-01-04T06:04:14;100157.06;;;8.66;100.00
11349;BME280;5729;43.570;27.826;2023-01-04T06:06:40;100157.84;;;8.67;100.00
11349;BME280;5729;43.570;27.826;2023-01-04T06:09:05;100169.38;;;8.67;100.00
11349;BME280;5729;43.570;27.826;2023-01-04T06:11:31;100171.28;;;8.67;100.00
11349;BME280;5729;43.570;27.826;2023-01-04T06:13:56;100187.38;;;8.58;100.00
11349;BME280;5729;43.570;27.826;2023-01-04T06:16:22;100197.03;;;8.42;100.00
11349;BME280;5729;43.570;27.826;2023-01-04T06:18:47;100198.22;;;8.27;100.00
11349;BME280;5729;43.570;27.826;2023-01-04T06:21:13;100198.69;;;8.21;100.00
11349;BME280;5729;43.570;27.826;2023-01-04T06:23:38;100199.63;;;8.16;100.00
11349;BME280;5729;43.570;27.826;2023-01-04T06:26:04;100200.41;;;8.17;100.00
11349;BME280;5729;43.570;27.826;2023-01-04T06:28:29;100209.13;;;8.22;100.00
11349;BME280;5729;43.570;27.826;2023-01-04T06:30:55;100208.66;;;8.29;100.00
11349;BME280;5729;43.570;27.826;2023-01-04T06:33:20;100207.56;;;8.30;100.00
11349;BME280;5729;43.570;27.826;2023-01-04T06:35:55;100210.47;;;8.42;100.00
11349;BME280;5729;43.570;27.826;2023-01-04T06:38:20;100201.31;;;8.43;100.00
11349;BME280;5729;43.570;27.826;2023-01-04T06:40:46;100209.53;;;8.55;100.00
11349;BME280;5729;43.570;27.826;2023-01-04T06:43:11;100215.53;;;8.69;100.00
11349;BME280;5729;43.570;27.826;2023-01-04T06:45:37;100214.75;;;8.78;100.00
11349;BME280;5729;43.570;27.826;2023-01-04T06:48:02;100219.34;;;8.86;100.00
11349;BME280;5729;43.570;27.826;2023-01-04T06:50:28;100215.53;;;8.95;100.00
11349;BME280;5729;43.570;27.826;2023-01-04T06:52:53;100222.47;;;9.05;100.00
11349;BME280;5729;43.570;27.826;2023-01-04T06:55:19;100227.38;;;9.03;100.00
11349;BME280;5729;43.570;27.826;2023-01-04T06:57:44;100229.28;;;9.11;100.00
11349;BME280;5729;43.570;27.826;2023-01-04T07:00:10;100228.78;;;9.18;100.00
11349;BME280;5729;43.570;27.826;2023-01-04T07:02:36;100229.28;;;9.20;100.00
11349;BME280;5729;43.570;27.826;2023-01-04T07:05:02;100237.97;;;9.17;100.00
11349;BME280;5729;43.570;27.826;2023-01-04T07:07:28;100246.50;;;9.27;100.00
11349;BME280;5729;43.570;27.826;2023-01-04T07:09:53;100247.28;;;9.28;100.00
11349;BME280;5729;43.570;27.826;2023-01-04T07:12:19;100257.91;;;9.33;100.00
11349;BME280;5729;43.570;27.826;2023-01-04T07:14:44;100253.94;;;9.39;100.00
11349;BME280;5729;43.570;27.826;2023-01-04T07:17:09;100247.75;;;9.38;100.00
11349;BME280;5729;43.570;27.826;2023-01-04T07:19:35;100244.75;;;9.40;100.00
11349;BME280;5729;43.570;27.826;2023-01-04T07:22:00;100254.56;;;9.44;100.00
11349;BME280;5729;43.570;27.826;2023-01-04T07:24:26;100262.31;;;9.46;100.00
11349;BME280;5729;43.570;27.826;2023-01-04T07:26:52;100255.50;;;9.48;100.00
11349;BME280;5729;43.570;27.826;2023-01-04T07:29:17;100251.41;;;9.42;100.00
11349;BME280;5729;43.570;27.826;2023-01-04T07:31:45;100258.34;;;9.52;100.00
11349;BME280;5729;43.570;27.826;2023-01-04T07:34:11;100246.75;;;9.60;100.00
11349;BME280;5729;43.570;27.826;2023-01-04T07:36:37;100257.84;;;9.67;100.00
11349;BME280;5729;43.570;27.826;2023-01-04T07:39:02;100263.53;;;9.66;100.00
11349;BME280;5729;43.570;27.826;2023-01-04T07:41:28;100266.53;;;9.64;100.00
11349;BME280;5729;43.570;27.826;2023-01-04T07:43:53;100257.19;;;9.62;100.00
11349;BME280;5729;43.570;27.826;2023-01-04T07:46:19;100267.97;;;9.70;100.00
11349;BME280;5729;43.570;27.826;2023-01-04T07:48:46;100269.38;;;9.76;100.00
11349;BME280;5729;43.570;27.826;2023-01-04T07:51:12;100264.75;;;9.77;100.00
11349;BME280;5729;43.570;27.826;2023-01-04T07:53:37;100272.53;;;9.78;100.00
11349;BME280;5729;43.570;27.826;2023-01-04T07:56:03;100265.78;;;9.55;100.00
11349;BME280;5729;43.570;27.826;2023-01-04T07:58:32;100265.72;;;9.72;100.00
11349;BME280;5729;43.570;27.826;2023-01-04T08:01:08;100273.78;;;9.81;100.00
11349;BME280;5729;43.570;27.826;2023-01-04T08:03:34;100276.78;;;9.88;100.00
11349;BME280;5729;43.570;27.826;2023-01-04T08:06:09;100277.84;;;9.96;100.00
11349;BME280;5729;43.570;27.826;2023-01-04T08:08:35;100281.94;;;10.02;100.00
11349;BME280;5729;43.570;27.826;2023-01-04T08:11:01;100279.72;;;10.04;100.00
11349;BME280;5729;43.570;27.826;2023-01-04T08:13:27;100259.47;;;9.98;100.00
11349;BME280;5729;43.570;27.826;2023-01-04T08:15:53;100277.63;;;10.09;100.00
11349;BME280;5729;43.570;27.826;2023-01-04T08:18:19;100280.53;;;9.96;100.00
11349;BME280;5729;43.570;27.826;2023-01-04T08:20:44;100286.59;;;9.93;100.00
11349;BME280;5729;43.570;27.826;2023-01-04T08:23:10;100289.59;;;9.82;100.00
11349;BME280;5729;43.570;27.826;2023-01-04T08:25:35;100298.81;;;9.81;100.00
11349;BME280;5729;43.570;27.826;2023-01-04T08:28:01;100297.88;;;9.77;100.00
11349;BME280;5729;43.570;27.826;2023-01-04T08:30:26;100296.72;;;9.87;100.00
11349;BME280;5729;43.570;27.826;2023-01-04T08:32:52;100298.19;;;9.76;100.00
11349;BME280;5729;43.570;27.826;2023-01-04T08:35:21;100303.38;;;9.90;100.00
11349;BME280;5729;43.570;27.826;2023-01-04T08:37:47;100293.72;;;9.89;100.00
11349;BME280;5729;43.570;27.826;2023-01-04T08:40:12;100297.69;;;9.91;100.00
11349;BME280;5729;43.570;27.826;2023-01-04T08:42:37;100289.88;;;9.98;100.00
11349;BME280;5729;43.570;27.826;2023-01-04T08:45:03;100290.63;;;10.07;100.00
11349;BME280;5729;43.570;27.826;2023-01-04T08:47:30;100291.41;;;10.08;100.00
11349;BME280;5729;43.570;27.826;2023-01-04T08:49:56;100292.53;;;10.15;100.00
11349;BME280;5729;43.570;27.826;2023-01-04T08:52:23;100295.66;;;10.17;100.00
11349;BME280;5729;43.570;27.826;2023-01-04T08:54:48;100298.06;;;10.19;100.00
11349;BME280;5729;43.570;27.826;2023-01-04T08:57:15;100289.50;;;10.26;100.00
11349;BME280;5729;43.570;27.826;2023-01-04T08:59:41;100292.63;;;10.28;100.00
11349;BME280;5729;43.570;27.826;2023-01-04T09:02:25;100295.41;;;10.40;100.00
11349;BME280;5729;43.570;27.826;2023-01-04T09:04:51;100285.41;;;10.49;100.00
11349;BME280;5729;43.570;27.826;2023-01-04T09:07:18;100285.91;;;10.42;100.00
11349;BME280;5729;43.570;27.826;2023-01-04T09:09:44;100287.09;;;10.53;100.00
11349;BME280;5729;43.570;27.826;2023-01-04T09:12:09;100286.00;;;10.54;100.00
11349;BME280;5729;43.570;27.826;2023-01-04T09:14:36;100300.81;;;10.40;100.00
11349;BME280;5729;43.570;27.826;2023-01-04T09:17:01;100285.06;;;10.50;100.00
11349;BME280;5729;43.570;27.826;2023-01-04T09:19:27;100287.22;;;10.36;100.00
11349;BME280;5729;43.570;27.826;2023-01-04T09:21:52;100290.72;;;10.37;100.00
11349;BME280;5729;43.570;27.826;2023-01-04T09:24:17;100286.19;;;10.49;100.00
11349;BME280;5729;43.570;27.826;2023-01-04T09:26:43;100287.31;;;10.48;100.00
11349;BME280;5729;43.570;27.826;2023-01-04T09:29:11;100286.44;;;10.36;100.00
11349;BME280;5729;43.570;27.826;2023-01-04T09:31:36;100290.13;;;10.23;100.00
11349;BME280;5729;43.570;27.826;2023-01-04T09:34:02;100277.56;;;10.35;100.00
11349;BME280;5729;43.570;27.826;2023-01-04T09:36:27;100272.22;;;10.27;100.00
11349;BME280;5729;43.570;27.826;2023-01-04T09:38:54;100272.47;;;10.34;100.00
11349;BME280;5729;43.570;27.826;2023-01-04T09:44:09;100267.91;;;10.17;100.00
11349;BME280;5729;43.570;27.826;2023-01-04T09:51:44;100262.91;;;10.07;100.00
11349;BME280;5729;43.570;27.826;2023-01-04T09:54:14;100265.78;;;10.02;100.00
11349;BME280;5729;43.570;27.826;2023-01-04T09:56:52;100260.97;;;10.25;100.00
11349;BME280;5729;43.570;27.826;2023-01-04T09:59:28;100268.38;;;10.28;100.00
11349;BME280;5729;43.570;27.826;2023-01-04T10:02:20;100255.84;;;10.32;100.00
11349;BME280;5729;43.570;27.826;2023-01-04T10:04:49;100258.31;;;10.45;100.00
11349;BME280;5729;43.570;27.826;2023-01-04T10:07:30;100252.31;;;10.40;100.00
11349;BME280;5729;43.570;27.826;2023-01-04T10:09:57;100264.56;;;10.58;100.00
11349;BME280;5729;43.570;27.826;2023-01-04T10:12:46;100265.94;;;10.64;100.00
11349;BME280;5729;43.570;27.826;2023-01-04T10:18:48;100258.31;;;10.66;100.00
11349;BME280;5729;43.570;27.826;2023-01-04T10:24:08;100267.28;;;10.79;100.00
11349;BME280;5729;43.570;27.826;2023-01-04T10:31:59;100266.16;;;10.59;100.00
11349;BME280;5729;43.570;27.826;2023-01-04T10:34:28;100267.06;;;10.63;100.00
11349;BME280;5729;43.570;27.826;2023-01-04T10:37:21;100262.66;;;10.59;100.00
11349;BME280;5729;43.570;27.826;2023-01-04T10:39:46;100259.34;;;10.53;100.00
11349;BME280;5729;43.570;27.826;2023-01-04T10:52:57;100256.34;;;10.75;100.00
11349;BME280;5729;43.570;27.826;2023-01-04T10:55:45;100252.69;;;10.80;100.00
11349;BME280;5729;43.570;27.826;2023-01-04T10:58:33;100248.00;;;10.68;100.00
11349;BME280;5729;43.570;27.826;2023-01-04T11:01:08;100257.53;;;10.86;100.00
11349;BME280;5729;43.570;27.826;2023-01-04T11:03:44;100242.75;;;10.93;100.00
11349;BME280;5729;43.570;27.826;2023-01-04T11:06:31;100240.69;;;11.10;100.00
11349;BME280;5729;43.570;27.826;2023-01-04T11:09:10;100247.00;;;11.14;100.00
11349;BME280;5729;43.570;27.826;2023-01-04T11:11:43;100242.50;;;11.18;100.00
11349;BME280;5729;43.570;27.826;2023-01-04T11:14:09;100260.81;;;11.13;100.00
11349;BME280;5729;43.570;27.826;2023-01-04T11:16:37;100259.41;;;10.95;100.00
11349;BME280;5729;43.570;27.826;2023-01-04T11:19:04;100259.31;;;11.03;100.00
11349;BME280;5729;43.570;27.826;2023-01-04T11:21:34;100259.72;;;10.93;100.00
11349;BME280;5729;43.570;27.826;2023-01-04T11:24:04;100260.31;;;10.99;100.00
11349;BME280;5729;43.570;27.826;2023-01-04T11:26:37;100259.13;;;10.87;100.00
11349;BME280;5729;43.570;27.826;2023-01-04T11:29:15;100257.88;;;10.85;100.00
11349;BME280;5729;43.570;27.826;2023-01-04T11:32:01;100262.47;;;10.84;100.00
11349;BME280;5729;43.570;27.826;2023-01-04T11:34:56;100262.09;;;10.95;100.00
11349;BME280;5729;43.570;27.826;2023-01-04T11:37:30;100266.56;;;10.90;100.00
11349;BME280;5729;43.570;27.826;2023-01-04T11:40:24;100265.44;;;10.91;100.00
11349;BME280;5729;43.570;27.826;2023-01-04T11:42:52;100259.13;;;10.67;100.00
11349;BME280;5729;43.570;27.826;2023-01-04T11:45:33;100269.19;;;10.78;100.00
11349;BME280;5729;43.570;27.826;2023-01-04T11:47:59;100264.44;;;10.75;100.00
11349;BME280;5729;43.570;27.826;2023-01-04T11:50:45;100259.13;;;10.67;100.00
11349;BME280;5729;43.570;27.826;2023-01-04T11:53:24;100264.66;;;10.70;100.00
11349;BME280;5729;43.570;27.826;2023-01-04T11:55:51;100262.22;;;10.77;100.00
11349;BME280;5729;43.570;27.826;2023-01-04T11:58:17;100267.59;;;10.77;100.00
11349;BME280;5729;43.570;27.826;2023-01-04T12:00:54;100263.47;;;10.80;100.00
11349;BME280;5729;43.570;27.826;2023-01-04T12:05:53;100256.03;;;10.98;100.00
11349;BME280;5729;43.570;27.826;2023-01-04T12:08:34;100252.53;;;10.97;100.00
11349;BME280;5729;43.570;27.826;2023-01-04T12:11:03;100238.06;;;11.02;100.00
11349;BME280;5729;43.570;27.826;2023-01-04T12:13:31;100239.94;;;11.22;100.00
11349;BME280;5729;43.570;27.826;2023-01-04T12:16:06;100237.28;;;11.34;100.00
11349;BME280;5729;43.570;27.826;2023-01-04T12:18:40;100235.44;;;11.14;100.00
11349;BME280;5729;43.570;27.826;2023-01-04T12:21:15;100245.16;;;11.27;100.00
11349;BME280;5729;43.570;27.826;2023-01-04T12:23:42;100238.59;;;10.95;100.00
11349;BME280;5729;43.570;27.826;2023-01-04T12:26:09;100248.78;;;10.89;100.00
11349;BME280;5729;43.570;27.826;2023-01-04T12:28:40;100256.56;;;10.91;100.00
11349;BME280;5729;43.570;27.826;2023-01-04T12:33:48;100240.91;;;10.84;100.00
11349;BME280;5729;43.570;27.826;2023-01-04T12:36:19;100245.31;;;10.89;100.00
11349;BME280;5729;43.570;27.826;2023-01-04T12:41:21;100245.16;;;10.65;100.00
11349;BME280;5729;43.570;27.826;2023-01-04T12:43:47;100249.13;;;10.67;100.00
11349;BME280;5729;43.570;27.826;2023-01-04T12:54:54;100225.31;;;10.48;100.00
11349;BME280;5729;43.570;27.826;2023-01-04T13:02:30;100235.19;;;10.65;100.00
11349;BME280;5729;43.570;27.826;2023-01-04T13:05:01;100239.63;;;10.61;100.00
11349;BME280;5729;43.570;27.826;2023-01-04T13:07:40;100239.31;;;10.63;100.00
11349;BME280;5729;43.570;27.826;2023-01-04T13:18:42;100249.44;;;10.45;100.00
11349;BME280;5729;43.570;27.826;2023-01-04T13:23:51;100259.00;;;10.34;100.00
11349;BME280;5729;43.570;27.826;2023-01-04T13:31:51;100271.59;;;10.12;100.00
11349;BME280;5729;43.570;27.826;2023-01-04T13:34:38;100273.75;;;10.28;100.00
11349;BME280;5729;43.570;27.826;2023-01-04T13:39:43;100264.94;;;10.18;100.00
11349;BME280;5729;43.570;27.826;2023-01-04T13:42:26;100262.59;;;10.08;100.00
11349;BME280;5729;43.570;27.826;2023-01-04T13:47:49;100248.94;;;10.22;100.00
11349;BME280;5729;43.570;27.826;2023-01-04T13:50:37;100247.50;;;10.25;100.00
11349;BME280;5729;43.570;27.826;2023-01-04T13:53:04;100251.94;;;10.21;100.00
11349;BME280;5729;43.570;27.826;2023-01-04T13:55:32;100245.75;;;10.20;100.00
11349;BME280;5729;43.570;27.826;2023-01-04T13:58:03;100249.75;;;10.05;100.00
11349;BME280;5729;43.570;27.826;2023-01-04T14:05:47;100264.25;;;9.83;100.00
11349;BME280;5729;43.570;27.826;2023-01-04T14:08:21;100266.81;;;9.71;100.00
11349;BME280;5729;43.570;27.826;2023-01-04T14:10:51;100259.09;;;9.70;100.00
11349;BME280;5729;43.570;27.826;2023-01-04T14:13:18;100274.31;;;9.66;100.00
11349;BME280;5729;43.570;27.826;2023-01-04T14:15:44;100263.50;;;9.74;100.00
11349;BME280;5729;43.570;27.826;2023-01-04T14:18:27;100267.00;;;9.75;100.00
11349;BME280;5729;43.570;27.826;2023-01-04T14:20:53;100264.81;;;9.68;100.00
11349;BME280;5729;43.570;27.826;2023-01-04T14:23:35;100267.50;;;9.68;100.00
11349;BME280;5729;43.570;27.826;2023-01-04T14:26:03;100271.16;;;9.55;100.00
11349;BME280;5729;43.570;27.826;2023-01-04T14:28:34;100275.13;;;9.49;100.00
11349;BME280;5729;43.570;27.826;2023-01-04T14:38:43;100267.25;;;9.35;100.00
11349;BME280;5729;43.570;27.826;2023-01-04T14:41:39;100264.88;;;9.34;100.00
11349;BME280;5729;43.570;27.826;2023-01-04T14:44:16;100253.63;;;9.32;100.00
11349;BME280;5729;43.570;27.826;2023-01-04T14:46:51;100256.47;;;9.44;100.00
11349;BME280;5729;43.570;27.826;2023-01-04T14:49:17;100258.84;;;9.45;100.00
11349;BME280;5729;43.570;27.826;2023-01-04T14:51:50;100256.63;;;9.48;100.00
11349;BME280;5729;43.570;27.826;2023-01-04T14:54:17;100248.03;;;9.54;100.00
11349;BME280;5729;43.570;27.826;2023-01-04T14:56:43;100257.38;;;9.48;100.00
11349;BME280;5729;43.570;27.826;2023-01-04T14:59:09;100265.78;;;9.38;100.00
11349;BME280;5729;43.570;27.826;2023-01-04T15:01:35;100249.22;;;9.19;100.00
11349;BME280;5729;43.570;27.826;2023-01-04T15:04:04;100259.50;;;9.25;100.00